Time,TemperatureF,DewpointF,PressureIn,WindDirection,WindDirectionDegrees,WindSpeedMPH,WindSpeedGustMPH,Humidity,HourlyPrecipIn,Conditions,Clouds,dailyrainin,SolarRadiationWatts/m^2,SoftwareType,DateUTC
2013-07-01 00:01:00,73.0,54.0,-100.00,NNE,20,6.0,13.0,51,0.00,,,0.00,0.000000,,2013-07-01 07:01:00,
2013-07-01 00:11:00,73.0,54.0,-100.00,NNE,20,6.0,13.0,51,0.00,,,0.00,0.000000,,2013-07-01 07:11:00,
2013-07-01 00:43:00,72.0,54.0,-100.00,NE,50,6.0,12.0,54,0.00,,,0.00,0.000000,,2013-07-01 07:43:00,
2013-07-01 00:53:00,72.0,54.0,-100.00,NE,50,6.0,12.0,54,0.00,,,0.00,0.000000,,2013-07-01 07:53:00,
2013-07-01 01:01:00,72.0,54.0,-100.00,NE,50,6.0,12.0,54,0.00,,,0.00,0.000000,,2013-07-01 08:01:00,
2013-07-01 01:11:00,72.0,54.0,-100.00,NE,50,6.0,12.0,54,0.00,,,0.00,0.000000,,2013-07-01 08:11:00,
2013-07-01 01:43:00,72.0,54.0,-100.00,NE,53,6.0,11.0,54,0.00,,,0.00,0.000000,,2013-07-01 08:43:00,
2013-07-01 01:52:00,72.0,54.0,-100.00,NE,53,6.0,11.0,54,0.00,,,0.00,0.000000,,2013-07-01 08:52:00,
2013-07-01 02:02:00,72.0,54.0,-100.00,NE,53,6.0,11.0,54,0.00,,,0.00,0.000000,,2013-07-01 09:02:00,
2013-07-01 02:11:00,72.0,54.0,-100.00,NE,53,6.0,11.0,54,0.00,,,0.00,0.000000,,2013-07-01 09:11:00,
2013-07-01 02:43:00,70.0,54.0,-100.00,North,350,4.0,8.0,56,0.00,,,0.00,0.000000,,2013-07-01 09:43:00,
2013-07-01 02:53:00,70.0,54.0,-100.00,North,350,4.0,8.0,56,0.00,,,0.00,0.000000,,2013-07-01 09:53:00,
2013-07-01 03:03:00,70.0,54.0,-100.00,North,350,4.0,8.0,56,0.00,,,0.00,0.000000,,2013-07-01 10:03:00,
2013-07-01 03:11:00,70.0,54.0,-100.00,North,350,4.0,8.0,56,0.00,,,0.00,0.000000,,2013-07-01 10:11:00,
2013-07-01 03:43:00,69.0,54.0,-100.00,ENE,62,2.0,8.0,58,0.00,,,0.00,0.000000,,2013-07-01 10:43:00,
2013-07-01 03:52:00,69.0,54.0,-100.00,ENE,62,2.0,8.0,58,0.00,,,0.00,0.000000,,2013-07-01 10:52:00,
2013-07-01 04:02:00,69.0,54.0,-100.00,ENE,62,2.0,8.0,58,0.00,,,0.00,0.000000,,2013-07-01 11:02:00,
2013-07-01 04:11:00,69.0,54.0,-100.00,ENE,62,2.0,8.0,58,0.00,,,0.00,0.000000,,2013-07-01 11:11:00,
2013-07-01 04:33:00,68.0,54.0,-100.00,NNE,15,2.0,6.0,60,0.00,,,0.00,0.000000,,2013-07-01 11:33:00,
2013-07-01 04:43:00,68.0,54.0,-100.00,NNE,15,2.0,6.0,60,0.00,,,0.00,0.000000,,2013-07-01 11:43:00,
2013-07-01 04:52:00,68.0,54.0,-100.00,NNE,15,2.0,6.0,60,0.00,,,0.00,0.000000,,2013-07-01 11:52:00,
2013-07-01 05:01:00,68.0,54.0,-100.00,NNE,15,2.0,6.0,60,0.00,,,0.00,0.000000,,2013-07-01 12:01:00,
2013-07-01 05:11:00,68.0,54.0,-100.00,NNE,15,2.0,6.0,60,0.00,,,0.00,0.000000,,2013-07-01 12:11:00,
2013-07-01 05:33:00,67.0,54.0,-100.00,WSW,251,3.0,7.0,63,0.00,,,0.00,0.000000,,2013-07-01 12:33:00,
2013-07-01 05:43:00,67.0,54.0,-100.00,WSW,251,3.0,7.0,63,0.00,,,0.00,0.000000,,2013-07-01 12:43:00,
2013-07-01 05:53:00,67.0,54.0,-100.00,WSW,251,3.0,7.0,63,0.00,,,0.00,0.000000,,2013-07-01 12:53:00,
2013-07-01 06:01:00,67.0,54.0,-100.00,WSW,251,3.0,7.0,63,0.00,,,0.00,0.000000,,2013-07-01 13:01:00,
2013-07-01 06:12:00,67.0,54.0,-100.00,WSW,251,3.0,7.0,63,0.00,,,0.00,0.000000,,2013-07-01 13:12:00,
2013-07-01 07:01:00,70.0,55.0,-100.00,WNW,293,4.0,7.0,60,0.00,,,0.00,26.000000,,2013-07-01 14:01:00,
2013-07-01 07:11:00,70.0,55.0,-100.00,WNW,293,4.0,7.0,60,0.00,,,0.00,26.000000,,2013-07-01 14:11:00,
2013-07-01 08:11:00,73.0,57.0,-100.00,NE,36,4.0,7.0,57,0.00,,,0.00,153.000000,,2013-07-01 15:11:00,
2013-07-01 08:43:00,76.0,57.0,-100.00,North,351,4.0,6.0,52,0.00,,,0.00,359.000000,,2013-07-01 15:43:00,
2013-07-01 09:01:00,76.0,57.0,-100.00,North,351,4.0,6.0,52,0.00,,,0.00,359.000000,,2013-07-01 16:01:00,
2013-07-01 09:11:00,76.0,57.0,-100.00,North,351,4.0,6.0,52,0.00,,,0.00,359.000000,,2013-07-01 16:11:00,
2013-07-01 09:33:00,79.0,58.0,-100.00,NW,322,5.0,7.0,48,0.00,,,0.00,558.000000,,2013-07-01 16:33:00,
2013-07-01 09:44:00,79.0,58.0,-100.00,NW,322,5.0,7.0,48,0.00,,,0.00,558.000000,,2013-07-01 16:44:00,
2013-07-01 09:53:00,79.0,58.0,-100.00,NW,322,5.0,7.0,48,0.00,,,0.00,558.000000,,2013-07-01 16:53:00,
2013-07-01 10:02:00,79.0,58.0,-100.00,NW,322,5.0,7.0,48,0.00,,,0.00,558.000000,,2013-07-01 17:02:00,
2013-07-01 10:12:00,79.0,58.0,-100.00,NW,322,5.0,7.0,48,0.00,,,0.00,558.000000,,2013-07-01 17:12:00,
2013-07-01 10:34:00,83.0,59.0,-100.00,WNW,303,5.0,8.0,44,0.00,,,0.00,747.000000,,2013-07-01 17:34:00,
2013-07-01 10:43:00,83.0,59.0,-100.00,WNW,303,5.0,8.0,44,0.00,,,0.00,747.000000,,2013-07-01 17:43:00,
2013-07-01 10:53:00,83.0,59.0,-100.00,WNW,303,5.0,8.0,44,0.00,,,0.00,747.000000,,2013-07-01 17:53:00,
2013-07-01 11:02:00,83.0,59.0,-100.00,WNW,303,5.0,8.0,44,0.00,,,0.00,747.000000,,2013-07-01 18:02:00,
2013-07-01 11:11:00,83.0,59.0,-100.00,WNW,303,5.0,8.0,44,0.00,,,0.00,747.000000,,2013-07-01 18:11:00,
2013-07-01 11:44:00,86.0,57.0,-100.00,NW,317,5.0,10.0,38,0.00,,,0.00,905.000000,,2013-07-01 18:44:00,
2013-07-01 11:53:00,86.0,57.0,-100.00,NW,317,5.0,10.0,38,0.00,,,0.00,905.000000,,2013-07-01 18:53:00,
2013-07-01 12:01:00,86.0,57.0,-100.00,NW,317,5.0,10.0,38,0.00,,,0.00,905.000000,,2013-07-01 19:01:00,
2013-07-01 12:11:00,86.0,57.0,-100.00,NW,317,5.0,10.0,38,0.00,,,0.00,905.000000,,2013-07-01 19:11:00,
2013-07-01 12:44:00,88.0,57.0,-100.00,NW,322,7.0,13.0,35,0.00,,,0.00,1026.000000,,2013-07-01 19:44:00,
2013-07-01 12:53:00,88.0,57.0,-100.00,NW,322,7.0,13.0,35,0.00,,,0.00,1026.000000,,2013-07-01 19:53:00,
2013-07-01 13:01:00,88.0,57.0,-100.00,NW,322,7.0,13.0,35,0.00,,,0.00,1026.000000,,2013-07-01 20:01:00,
2013-07-01 13:11:00,88.0,57.0,-100.00,NW,322,7.0,13.0,35,0.00,,,0.00,1026.000000,,2013-07-01 20:11:00,
2013-07-01 13:34:00,91.0,57.0,-100.00,West,266,5.0,12.0,32,0.00,,,0.00,1059.000000,,2013-07-01 20:34:00,
2013-07-01 13:43:00,91.0,57.0,-100.00,West,266,5.0,12.0,32,0.00,,,0.00,1059.000000,,2013-07-01 20:43:00,
2013-07-01 13:52:00,91.0,57.0,-100.00,West,266,5.0,12.0,32,0.00,,,0.00,1059.000000,,2013-07-01 20:52:00,
2013-07-01 14:01:00,91.0,57.0,-100.00,West,266,5.0,12.0,32,0.00,,,0.00,1059.000000,,2013-07-01 21:01:00,
2013-07-01 14:11:00,91.0,57.0,-100.00,West,266,5.0,12.0,32,0.00,,,0.00,1059.000000,,2013-07-01 21:11:00,
2013-07-01 14:44:00,92.0,57.0,-100.00,NW,309,9.0,17.0,31,0.00,,,0.00,1021.000000,,2013-07-01 21:44:00,
2013-07-01 14:53:00,92.0,57.0,-100.00,NW,309,9.0,17.0,31,0.00,,,0.00,1021.000000,,2013-07-01 21:53:00,
2013-07-01 15:01:00,92.0,57.0,-100.00,NW,309,9.0,17.0,31,0.00,,,0.00,1021.000000,,2013-07-01 22:01:00,
2013-07-01 15:11:00,92.0,57.0,-100.00,NW,309,9.0,17.0,31,0.00,,,0.00,1021.000000,,2013-07-01 22:11:00,
2013-07-01 15:43:00,93.0,56.0,-100.00,NW,310,9.0,17.0,29,0.00,,,0.00,773.000000,,2013-07-01 22:43:00,
2013-07-01 15:53:00,93.0,56.0,-100.00,NW,310,9.0,17.0,29,0.00,,,0.00,773.000000,,2013-07-01 22:53:00,
2013-07-01 16:01:00,93.0,56.0,-100.00,NW,310,9.0,17.0,29,0.00,,,0.00,773.000000,,2013-07-01 23:01:00,
2013-07-01 16:11:00,93.0,56.0,-100.00,NW,310,9.0,17.0,29,0.00,,,0.00,773.000000,,2013-07-01 23:11:00,
2013-07-01 16:44:00,93.0,53.0,-100.00,West,260,8.0,18.0,26,0.00,,,0.00,812.000000,,2013-07-01 23:44:00,
2013-07-01 16:53:00,93.0,53.0,-100.00,West,260,8.0,18.0,26,0.00,,,0.00,812.000000,,2013-07-01 23:53:00,
2013-07-01 17:01:00,93.0,53.0,-100.00,West,260,8.0,18.0,26,0.00,,,0.00,812.000000,,2013-07-02 00:01:00,
2013-07-01 17:11:00,93.0,53.0,-100.00,West,260,8.0,18.0,26,0.00,,,0.00,812.000000,,2013-07-02 00:11:00,
2013-07-01 17:43:00,93.0,51.0,-100.00,WNW,289,10.0,20.0,24,0.00,,,-99.99,698.000000,,2013-07-02 00:43:00,
2013-07-01 17:53:00,93.0,51.0,-100.00,WNW,289,10.0,20.0,24,0.00,,,-99.99,698.000000,,2013-07-02 00:53:00,
2013-07-01 18:01:00,93.0,51.0,-100.00,WNW,289,10.0,20.0,24,0.00,,,-99.99,698.000000,,2013-07-02 01:01:00,
2013-07-01 18:11:00,93.0,51.0,-100.00,WNW,289,10.0,20.0,24,0.00,,,-99.99,698.000000,,2013-07-02 01:11:00,
2013-07-01 18:43:00,91.0,49.0,-100.00,NW,321,11.0,18.0,24,0.00,,,0.00,500.000000,,2013-07-02 01:43:00,
2013-07-01 18:53:00,91.0,49.0,-100.00,NW,321,11.0,18.0,24,0.00,,,0.00,500.000000,,2013-07-02 01:53:00,
2013-07-01 19:01:00,91.0,49.0,-100.00,NW,321,11.0,18.0,24,0.00,,,0.00,500.000000,,2013-07-02 02:01:00,
2013-07-01 19:11:00,91.0,49.0,-100.00,NW,321,11.0,18.0,24,0.00,,,0.00,500.000000,,2013-07-02 02:11:00,
2013-07-01 19:34:00,88.0,50.0,-100.00,NW,313,13.0,20.0,27,0.00,,,0.00,298.000000,,2013-07-02 02:34:00,
2013-07-01 19:43:00,88.0,50.0,-100.00,NW,313,13.0,20.0,27,0.00,,,0.00,298.000000,,2013-07-02 02:43:00,
2013-07-01 19:53:00,88.0,50.0,-100.00,NW,313,13.0,20.0,27,0.00,,,0.00,298.000000,,2013-07-02 02:53:00,
2013-07-01 20:01:00,88.0,50.0,-100.00,NW,313,13.0,20.0,27,0.00,,,0.00,298.000000,,2013-07-02 03:01:00,
2013-07-01 20:11:00,88.0,50.0,-100.00,NW,313,13.0,20.0,27,0.00,,,0.00,298.000000,,2013-07-02 03:11:00,
2013-07-01 20:43:00,85.0,48.0,-100.00,NW,323,10.0,19.0,28,0.00,,,0.00,115.000000,,2013-07-02 03:43:00,
2013-07-01 20:53:00,85.0,48.0,-100.00,NW,323,10.0,19.0,28,0.00,,,0.00,115.000000,,2013-07-02 03:53:00,
2013-07-01 21:01:00,85.0,48.0,-100.00,NW,323,10.0,19.0,28,0.00,,,0.00,115.000000,,2013-07-02 04:01:00,
2013-07-01 21:11:00,85.0,48.0,-100.00,NW,323,10.0,19.0,28,0.00,,,0.00,115.000000,,2013-07-02 04:11:00,
2013-07-01 21:32:00,82.0,50.0,-100.00,NW,313,8.0,14.0,33,0.00,,,0.00,12.000000,,2013-07-02 04:32:00,
2013-07-01 21:42:00,82.0,50.0,-100.00,NW,313,8.0,14.0,33,0.00,,,0.00,12.000000,,2013-07-02 04:42:00,
2013-07-01 21:53:00,82.0,50.0,-100.00,NW,313,8.0,14.0,33,0.00,,,0.00,12.000000,,2013-07-02 04:53:00,
2013-07-01 22:01:00,82.0,50.0,-100.00,NW,313,8.0,14.0,33,0.00,,,0.00,12.000000,,2013-07-02 05:01:00,
2013-07-01 22:11:00,82.0,50.0,-100.00,NW,313,8.0,14.0,33,0.00,,,0.00,12.000000,,2013-07-02 05:11:00,
2013-07-01 22:43:00,78.0,51.0,-100.00,NW,305,9.0,13.0,39,0.00,,,0.00,0.000000,,2013-07-02 05:43:00,
2013-07-01 22:53:00,78.0,51.0,-100.00,NW,305,9.0,13.0,39,0.00,,,0.00,0.000000,,2013-07-02 05:53:00,
2013-07-01 23:01:00,78.0,51.0,-100.00,NW,305,9.0,13.0,39,0.00,,,0.00,0.000000,,2013-07-02 06:01:00,
2013-07-01 23:11:00,78.0,51.0,-100.00,NW,305,9.0,13.0,39,0.00,,,0.00,0.000000,,2013-07-02 06:11:00,
2013-07-01 23:43:00,75.0,53.0,-100.00,West,278,5.0,12.0,47,0.00,,,0.00,0.000000,,2013-07-02 06:43:00,
2013-07-01 23:53:00,75.0,53.0,-100.00,West,278,5.0,12.0,47,0.00,,,0.00,0.000000,,2013-07-02 06:53:00,